Time,TemperatureF,DewpointF,PressureIn,WindDirection,WindDirectionDegrees,WindSpeedMPH,WindSpeedGustMPH,Humidity,HourlyPrecipIn,Conditions,Clouds,dailyrainin,SoftwareType,DateUTC
2013-08-31 00:01:00,72.4,66.6,29.77,North,0,0.0,0.0,82,0.00,,,0.00,WUHU216HW,2013-08-31 04:01:00,
2013-08-31 00:06:00,72.7,67.0,29.78,North,0,0.0,0.0,82,0.00,,,0.00,WUHU216HW,2013-08-31 04:06:00,
2013-08-31 00:11:00,72.9,67.2,29.78,North,0,0.0,0.0,82,0.00,,,0.00,WUHU216HW,2013-08-31 04:11:00,
2013-08-31 00:16:00,72.7,67.0,29.78,North,0,0.0,0.0,82,0.00,,,0.00,WUHU216HW,2013-08-31 04:16:00,
2013-08-31 00:21:00,72.9,67.2,29.77,North,0,0.0,0.0,82,0.00,,,0.00,WUHU216HW,2013-08-31 04:21:00,
2013-08-31 00:26:00,72.7,67.0,29.78,North,0,0.0,0.0,82,0.00,,,0.00,WUHU216HW,2013-08-31 04:26:00,
2013-08-31 00:31:00,72.5,66.4,29.78,North,0,0.0,0.0,81,0.00,,,0.00,WUHU216HW,2013-08-31 04:31:00,
2013-08-31 00:36:00,72.5,66.4,29.78,North,0,0.0,0.0,81,0.00,,,0.00,WUHU216HW,2013-08-31 04:36:00,
2013-08-31 00:41:00,72.4,66.3,29.77,North,0,0.0,0.0,81,0.00,,,0.00,WUHU216HW,2013-08-31 04:41:00,
2013-08-31 00:46:00,72.4,66.3,29.77,North,0,0.0,0.0,81,0.00,,,0.00,WUHU216HW,2013-08-31 04:46:00,
2013-08-31 00:51:00,72.4,66.6,29.77,North,0,0.0,0.0,82,0.00,,,0.00,WUHU216HW,2013-08-31 04:51:00,
2013-08-31 00:56:00,72.4,66.6,29.77,North,0,0.0,0.0,82,0.00,,,0.00,WUHU216HW,2013-08-31 04:56:00,
2013-08-31 01:01:00,72.4,66.6,29.77,North,0,0.0,0.0,82,0.00,,,0.00,WUHU216HW,2013-08-31 05:01:00,
2013-08-31 01:06:00,72.4,66.6,29.77,North,0,0.0,0.0,82,0.00,,,0.00,WUHU216HW,2013-08-31 05:06:00,
2013-08-31 01:11:00,72.4,66.6,29.77,North,0,0.0,0.0,82,0.00,,,0.00,WUHU216HW,2013-08-31 05:11:00,
2013-08-31 01:16:00,72.7,67.0,29.77,North,0,0.0,0.0,82,0.00,,,0.00,WUHU216HW,2013-08-31 05:16:00,
2013-08-31 01:21:00,72.7,67.2,29.76,North,0,0.0,0.0,83,0.00,,,0.00,WUHU216HW,2013-08-31 05:21:00,
2013-08-31 01:26:00,72.7,66.6,29.76,North,0,0.0,0.0,81,0.00,,,0.00,WUHU216HW,2013-08-31 05:26:00,
2013-08-31 01:31:00,72.7,66.6,29.76,North,0,0.0,0.0,81,0.00,,,0.00,WUHU216HW,2013-08-31 05:31:00,
2013-08-31 01:36:00,72.5,66.4,29.76,North,0,0.0,0.0,81,0.00,,,0.00,WUHU216HW,2013-08-31 05:36:00,
2013-08-31 01:41:00,72.5,66.8,29.76,North,0,0.0,0.0,82,0.00,,,0.00,WUHU216HW,2013-08-31 05:41:00,
2013-08-31 01:46:00,73.3,67.8,29.76,North,0,0.0,0.0,83,0.00,,,0.00,WUHU216HW,2013-08-31 05:46:00,
2013-08-31 01:51:00,74.0,67.9,29.76,North,0,0.0,0.0,81,0.00,,,0.00,WUHU216HW,2013-08-31 05:51:00,
2013-08-31 01:56:00,73.8,67.7,29.76,North,0,0.0,0.0,81,0.00,,,0.00,WUHU216HW,2013-08-31 05:56:00,
2013-08-31 02:01:00,73.8,67.7,29.75,North,0,0.0,0.0,81,0.00,,,0.00,WUHU216HW,2013-08-31 06:01:00,
2013-08-31 02:06:00,73.8,67.7,29.75,North,0,0.0,0.0,81,0.00,,,0.00,WUHU216HW,2013-08-31 06:06:00,
2013-08-31 02:11:00,73.4,67.3,29.76,North,0,0.0,0.0,81,0.00,,,0.00,WUHU216HW,2013-08-31 06:11:00,
2013-08-31 02:16:00,72.4,65.5,29.76,North,0,0.0,0.0,79,0.00,,,0.00,WUHU216HW,2013-08-31 06:16:00,
2013-08-31 02:21:00,71.5,65.0,29.76,North,0,0.0,0.0,80,0.00,,,0.00,WUHU216HW,2013-08-31 06:21:00,
2013-08-31 02:26:00,71.1,64.6,29.76,North,0,0.0,0.0,80,0.00,,,0.00,WUHU216HW,2013-08-31 06:26:00,
2013-08-31 02:31:00,70.4,64.3,29.76,North,0,0.0,0.0,81,0.00,,,0.00,WUHU216HW,2013-08-31 06:31:00,
2013-08-31 02:36:00,69.8,64.1,29.76,North,0,0.0,0.0,82,0.00,,,0.00,WUHU216HW,2013-08-31 06:36:00,
2013-08-31 02:41:00,69.5,63.7,29.76,North,0,0.0,0.0,82,0.00,,,0.00,WUHU216HW,2013-08-31 06:41:00,
2013-08-31 02:46:00,69.3,63.9,29.76,North,0,0.0,0.0,83,0.00,,,0.00,WUHU216HW,2013-08-31 06:46:00,
2013-08-31 02:51:00,69.1,63.7,29.76,North,0,0.0,0.0,83,0.00,,,0.00,WUHU216HW,2013-08-31 06:51:00,
2013-08-31 02:56:00,68.8,63.7,29.76,North,0,0.0,0.0,84,0.00,,,0.00,WUHU216HW,2013-08-31 06:56:00,
2013-08-31 03:01:00,68.6,63.5,29.76,North,0,0.0,0.0,84,0.00,,,0.00,WUHU216HW,2013-08-31 07:01:00,
2013-08-31 03:06:00,68.4,63.4,29.76,North,0,0.0,0.0,84,0.00,,,0.00,WUHU216HW,2013-08-31 07:06:00,
2013-08-31 03:11:00,68.0,63.0,29.76,North,0,0.0,0.0,84,0.00,,,0.00,WUHU216HW,2013-08-31 07:11:00,
2013-08-31 03:16:00,67.9,63.2,29.76,North,0,0.0,0.0,85,0.00,,,0.00,WUHU216HW,2013-08-31 07:16:00,
2013-08-31 03:21:00,67.7,63.4,29.77,North,0,0.0,0.0,86,0.00,,,0.00,WUHU216HW,2013-08-31 07:21:00,
2013-08-31 03:26:00,67.9,63.8,29.76,North,0,0.0,0.0,87,0.00,,,0.00,WUHU216HW,2013-08-31 07:26:00,
2013-08-31 03:31:00,69.1,65.1,29.76,North,0,0.0,0.0,87,0.00,,,0.00,WUHU216HW,2013-08-31 07:31:00,
2013-08-31 03:36:00,69.3,64.9,29.76,North,0,0.0,0.0,86,0.00,,,0.00,WUHU216HW,2013-08-31 07:36:00,
2013-08-31 03:41:00,69.1,64.4,29.76,North,0,0.0,0.0,85,0.00,,,0.00,WUHU216HW,2013-08-31 07:41:00,
2013-08-31 03:46:00,68.9,64.3,29.76,North,0,0.0,0.0,85,0.00,,,0.00,WUHU216HW,2013-08-31 07:46:00,
2013-08-31 03:51:00,68.8,64.1,29.76,North,0,0.0,0.0,85,0.00,,,0.00,WUHU216HW,2013-08-31 07:51:00,
2013-08-31 03:56:00,68.9,64.3,29.76,North,0,0.0,0.0,85,0.00,,,0.00,WUHU216HW,2013-08-31 07:56:00,
2013-08-31 04:00:00,68.8,64.1,29.76,North,0,0.0,0.0,85,0.00,,,0.00,WUHU216HW,2013-08-31 08:00:00,
2013-08-31 04:05:00,68.6,63.9,29.76,North,0,0.0,0.0,85,0.00,,,0.00,WUHU216HW,2013-08-31 08:05:00,
2013-08-31 04:10:00,69.1,65.1,29.76,North,0,0.0,0.0,87,0.00,,,0.00,WUHU216HW,2013-08-31 08:10:00,
2013-08-31 04:15:00,69.5,65.1,29.76,North,0,0.0,0.0,86,0.00,,,0.00,WUHU216HW,2013-08-31 08:15:00,
2013-08-31 04:20:00,69.7,64.9,29.76,North,0,0.0,0.0,85,0.00,,,0.00,WUHU216HW,2013-08-31 08:20:00,
2013-08-31 04:25:00,69.7,64.9,29.76,North,0,0.0,0.0,85,0.00,,,0.00,WUHU216HW,2013-08-31 08:25:00,
2013-08-31 04:30:00,69.7,65.3,29.76,North,0,0.0,0.0,86,0.00,,,0.00,WUHU216HW,2013-08-31 08:30:00,
2013-08-31 04:35:00,69.5,65.1,29.76,North,0,0.0,0.0,86,0.00,,,0.00,WUHU216HW,2013-08-31 08:35:00,
2013-08-31 04:40:00,69.1,64.7,29.76,North,0,0.0,0.0,86,0.00,,,0.00,WUHU216HW,2013-08-31 08:40:00,
2013-08-31 04:45:00,68.8,64.4,29.77,North,0,0.0,0.0,86,0.00,,,0.00,WUHU216HW,2013-08-31 08:45:00,
2013-08-31 04:50:00,68.8,64.4,29.77,North,0,0.0,0.0,86,0.00,,,0.00,WUHU216HW,2013-08-31 08:50:00,
2013-08-31 04:55:00,68.8,64.4,29.77,North,0,0.0,0.0,86,0.00,,,0.00,WUHU216HW,2013-08-31 08:55:00,
2013-08-31 05:00:00,69.1,65.1,29.77,North,0,0.0,0.0,87,0.00,,,0.00,WUHU216HW,2013-08-31 09:00:00,
2013-08-31 05:05:00,69.8,65.8,29.77,North,0,0.0,0.0,87,0.00,,,0.00,WUHU216HW,2013-08-31 09:05:00,
2013-08-31 05:10:00,70.2,66.2,29.77,North,0,0.0,0.0,87,0.00,,,0.00,WUHU216HW,2013-08-31 09:10:00,
2013-08-31 05:15:00,70.6,66.2,29.77,North,0,0.0,0.0,86,0.00,,,0.00,WUHU216HW,2013-08-31 09:15:00,
2013-08-31 05:20:00,70.6,66.2,29.77,North,0,0.0,0.0,86,0.00,,,0.00,WUHU216HW,2013-08-31 09:20:00,
2013-08-31 05:25:00,70.4,66.0,29.77,North,0,0.0,0.0,86,0.00,,,0.00,WUHU216HW,2013-08-31 09:25:00,
2013-08-31 05:30:00,70.2,65.8,29.77,North,0,0.0,0.0,86,0.00,,,0.00,WUHU216HW,2013-08-31 09:30:00,
2013-08-31 05:35:00,70.2,65.8,29.77,North,0,0.0,0.0,86,0.00,,,0.00,WUHU216HW,2013-08-31 09:35:00,
2013-08-31 05:40:00,70.0,65.6,29.77,North,0,0.0,0.0,86,0.00,,,0.00,WUHU216HW,2013-08-31 09:40:00,
2013-08-31 05:45:00,69.8,65.4,29.78,North,0,0.0,0.0,86,0.00,,,0.00,WUHU216HW,2013-08-31 09:45:00,
2013-08-31 05:50:00,69.7,65.3,29.78,North,0,0.0,0.0,86,0.00,,,0.00,WUHU216HW,2013-08-31 09:50:00,
2013-08-31 05:55:00,69.3,64.9,29.78,North,0,0.0,0.0,86,0.00,,,0.00,WUHU216HW,2013-08-31 09:55:00,
2013-08-31 06:00:00,68.8,64.4,29.78,North,0,0.0,0.0,86,0.00,,,0.00,WUHU216HW,2013-08-31 10:00:00,
2013-08-31 06:05:00,68.4,64.0,29.77,North,0,0.0,0.0,86,0.00,,,0.00,WUHU216HW,2013-08-31 10:05:00,
2013-08-31 06:10:00,68.4,64.4,29.78,North,0,0.0,0.0,87,0.00,,,0.00,WUHU216HW,2013-08-31 10:10:00,
2013-08-31 06:15:00,68.4,64.4,29.78,North,0,0.0,0.0,87,0.00,,,0.00,WUHU216HW,2013-08-31 10:15:00,
2013-08-31 06:20:00,68.2,64.2,29.78,North,0,0.0,0.0,87,0.00,,,0.00,WUHU216HW,2013-08-31 10:20:00,
2013-08-31 06:25:00,68.0,64.0,29.79,North,0,0.0,0.0,87,0.00,,,0.00,WUHU216HW,2013-08-31 10:25:00,
2013-08-31 06:30:00,67.7,63.6,29.79,North,0,0.0,0.0,87,0.00,,,0.00,WUHU216HW,2013-08-31 10:30:00,
2013-08-31 06:35:00,67.5,63.5,29.79,North,0,0.0,0.0,87,0.00,,,0.00,WUHU216HW,2013-08-31 10:35:00,
2013-08-31 06:40:00,67.7,64.0,29.78,North,0,0.0,0.0,88,0.00,,,0.00,WUHU216HW,2013-08-31 10:40:00,
2013-08-31 06:45:00,67.9,64.2,29.78,North,0,0.0,0.0,88,0.00,,,0.00,WUHU216HW,2013-08-31 10:45:00,
2013-08-31 06:50:00,68.0,64.4,29.78,North,0,0.0,0.0,88,0.00,,,0.00,WUHU216HW,2013-08-31 10:50:00,
2013-08-31 06:56:00,68.0,64.4,29.79,North,0,0.0,0.0,88,0.00,,,0.00,WUHU216HW,2013-08-31 10:56:00,
2013-08-31 07:00:00,68.0,64.4,29.79,North,0,0.0,0.0,88,0.00,,,0.00,WUHU216HW,2013-08-31 11:00:00,
2013-08-31 07:05:00,68.2,64.5,29.78,North,0,0.0,0.0,88,0.00,,,0.00,WUHU216HW,2013-08-31 11:05:00,
2013-08-31 07:10:00,68.0,64.4,29.78,North,0,0.0,0.0,88,0.00,,,0.00,WUHU216HW,2013-08-31 11:10:00,
2013-08-31 07:15:00,67.9,64.2,29.78,North,0,0.0,0.0,88,0.00,,,0.00,WUHU216HW,2013-08-31 11:15:00,
2013-08-31 07:20:00,67.9,64.4,29.78,North,0,0.0,0.0,89,0.00,,,0.00,WUHU216HW,2013-08-31 11:20:00,
2013-08-31 07:25:00,68.0,64.6,29.78,North,0,0.0,0.0,89,0.00,,,0.00,WUHU216HW,2013-08-31 11:25:00,
2013-08-31 07:30:00,68.0,64.6,29.79,North,0,0.0,0.0,89,0.00,,,0.00,WUHU216HW,2013-08-31 11:30:00,
2013-08-31 07:35:00,67.9,64.4,29.79,North,0,0.0,0.0,89,0.00,,,0.00,WUHU216HW,2013-08-31 11:35:00,
2013-08-31 07:40:00,67.9,64.4,29.79,North,0,0.0,0.0,89,0.00,,,0.00,WUHU216HW,2013-08-31 11:40:00,
2013-08-31 07:45:00,68.0,64.6,29.79,North,0,0.0,0.0,89,0.00,,,0.00,WUHU216HW,2013-08-31 11:45:00,
2013-08-31 07:50:00,68.0,64.6,29.79,North,0,0.0,0.0,89,0.00,,,0.00,WUHU216HW,2013-08-31 11:50:00,
2013-08-31 07:55:00,68.2,64.8,29.79,North,0,0.0,0.0,89,0.00,,,0.00,WUHU216HW,2013-08-31 11:55:00,
2013-08-31 08:00:00,68.4,65.0,29.79,North,0,0.0,0.0,89,0.00,,,0.00,WUHU216HW,2013-08-31 12:00:00,
2013-08-31 08:05:00,68.6,65.2,29.79,North,0,0.0,0.0,89,0.00,,,0.00,WUHU216HW,2013-08-31 12:05:00,
2013-08-31 08:10:00,69.3,66.2,29.80,North,0,0.0,0.0,90,0.00,,,0.00,WUHU216HW,2013-08-31 12:10:00,
2013-08-31 08:15:00,70.4,67.0,29.79,North,0,0.0,0.0,89,0.00,,,0.00,WUHU216HW,2013-08-31 12:15:00,
2013-08-31 08:20:00,70.4,67.0,29.80,North,0,0.0,0.0,89,0.00,,,0.00,WUHU216HW,2013-08-31 12:20:00,
2013-08-31 08:25:00,70.4,66.6,29.80,North,0,0.0,0.0,88,0.00,,,0.00,WUHU216HW,2013-08-31 12:25:00,
2013-08-31 08:30:00,70.7,67.0,29.80,North,0,0.0,0.0,88,0.00,,,0.00,WUHU216HW,2013-08-31 12:30:00,
2013-08-31 08:35:00,71.3,67.5,29.79,North,0,0.0,0.0,88,0.00,,,0.00,WUHU216HW,2013-08-31 12:35:00,
2013-08-31 08:40:00,71.8,68.0,29.80,North,0,0.0,0.0,88,0.00,,,0.00,WUHU216HW,2013-08-31 12:40:00,
2013-08-31 08:45:00,72.4,68.3,29.79,North,0,0.0,0.0,87,0.00,,,0.00,WUHU216HW,2013-08-31 12:45:00,
2013-08-31 08:50:00,74.2,69.8,29.79,North,0,0.0,0.0,86,0.00,,,0.00,WUHU216HW,2013-08-31 12:50:00,
2013-08-31 08:55:00,74.2,69.4,29.80,North,0,0.0,0.0,85,0.00,,,0.00,WUHU216HW,2013-08-31 12:55:00,
2013-08-31 09:00:00,73.8,69.0,29.80,North,0,0.0,0.0,85,0.00,,,0.00,WUHU216HW,2013-08-31 13:00:00,
2013-08-31 09:05:00,73.8,69.0,29.80,North,0,0.0,0.0,85,0.00,,,0.00,WUHU216HW,2013-08-31 13:05:00,
2013-08-31 09:10:00,73.6,68.9,29.80,North,0,0.0,0.0,85,0.00,,,0.00,WUHU216HW,2013-08-31 13:10:00,
2013-08-31 09:15:00,73.8,68.7,29.80,North,0,0.0,0.0,84,0.00,,,0.00,WUHU216HW,2013-08-31 13:15:00,
2013-08-31 09:20:00,74.0,68.5,29.80,North,0,0.0,0.0,83,0.00,,,0.00,WUHU216HW,2013-08-31 13:20:00,
2013-08-31 09:25:00,74.3,68.9,29.81,North,0,0.0,0.0,83,0.00,,,0.00,WUHU216HW,2013-08-31 13:25:00,
2013-08-31 09:30:00,74.3,68.6,29.80,North,0,0.0,0.0,82,0.00,,,0.00,WUHU216HW,2013-08-31 13:30:00,
2013-08-31 09:35:00,74.5,68.8,29.81,North,0,0.0,0.0,82,0.00,,,0.00,WUHU216HW,2013-08-31 13:35:00,
2013-08-31 09:40:00,74.7,69.0,29.80,North,0,0.0,0.0,82,0.00,,,0.00,WUHU216HW,2013-08-31 13:40:00,
2013-08-31 09:45:00,75.8,69.6,29.80,North,0,0.0,0.0,81,0.00,,,0.00,WUHU216HW,2013-08-31 13:45:00,
2013-08-31 09:50:00,76.7,69.7,29.80,North,0,0.0,0.0,79,0.00,,,0.00,WUHU216HW,2013-08-31 13:50:00,
2013-08-31 09:55:00,77.8,69.6,29.80,North,0,0.0,0.0,76,0.00,,,0.00,WUHU216HW,2013-08-31 13:55:00,
2013-08-31 10:00:00,77.9,69.8,29.80,North,0,0.0,0.0,76,0.00,,,0.00,WUHU216HW,2013-08-31 14:00:00,
2013-08-31 10:05:00,78.1,69.9,29.79,North,0,0.0,0.0,76,0.00,,,0.00,WUHU216HW,2013-08-31 14:05:00,
2013-08-31 10:10:00,77.9,69.8,29.79,North,0,0.0,0.0,76,0.00,,,0.00,WUHU216HW,2013-08-31 14:10:00,
2013-08-31 10:15:00,77.4,69.6,29.79,North,0,0.0,0.0,77,0.00,,,0.00,WUHU216HW,2013-08-31 14:15:00,
2013-08-31 10:20:00,76.7,69.3,29.79,North,0,0.0,0.0,78,0.00,,,0.00,WUHU216HW,2013-08-31 14:20:00,
2013-08-31 10:25:00,76.3,68.9,29.79,North,0,0.0,0.0,78,0.00,,,0.00,WUHU216HW,2013-08-31 14:25:00,
2013-08-31 10:30:00,75.8,68.5,29.79,North,0,0.0,0.0,78,0.00,,,0.00,WUHU216HW,2013-08-31 14:30:00,
2013-08-31 10:35:00,75.8,68.9,29.79,North,0,0.0,0.0,79,0.00,,,0.00,WUHU216HW,2013-08-31 14:35:00,
2013-08-31 10:40:00,76.0,69.0,29.79,North,0,0.0,0.0,79,0.00,,,0.00,WUHU216HW,2013-08-31 14:40:00,
2013-08-31 10:45:00,76.3,69.4,29.79,North,0,0.0,0.0,79,0.00,,,0.00,WUHU216HW,2013-08-31 14:45:00,
2013-08-31 10:50:00,76.0,68.2,29.80,North,0,0.0,0.0,77,0.00,,,0.00,WUHU216HW,2013-08-31 14:50:00,
2013-08-31 10:55:00,73.8,66.6,29.81,North,0,0.0,0.0,78,0.00,,,0.00,WUHU216HW,2013-08-31 14:55:00,
2013-08-31 11:00:00,72.5,66.1,29.80,North,0,0.0,0.0,80,0.00,,,0.00,WUHU216HW,2013-08-31 15:00:00,
2013-08-31 11:05:00,72.4,66.3,29.80,North,0,0.0,0.0,81,0.00,,,0.00,WUHU216HW,2013-08-31 15:05:00,
2013-08-31 11:10:00,72.2,66.4,29.80,North,0,0.0,0.0,82,0.00,,,0.00,WUHU216HW,2013-08-31 15:10:00,
2013-08-31 11:15:00,72.5,66.8,29.79,North,0,0.0,0.0,82,0.00,,,0.00,WUHU216HW,2013-08-31 15:15:00,
2013-08-31 11:20:00,73.1,67.6,29.79,North,0,0.0,0.0,83,0.00,,,0.00,WUHU216HW,2013-08-31 15:20:00,
2013-08-31 11:25:00,73.1,67.6,29.79,North,0,0.0,0.0,83,0.00,,,0.00,WUHU216HW,2013-08-31 15:25:00,
2013-08-31 11:30:00,72.7,67.0,29.79,North,0,0.0,0.0,82,0.00,,,0.00,WUHU216HW,2013-08-31 15:30:00,
2013-08-31 11:35:00,72.7,67.0,29.80,North,0,0.0,0.0,82,0.00,,,0.00,WUHU216HW,2013-08-31 15:35:00,
2013-08-31 11:40:00,72.9,67.4,29.80,North,0,0.0,0.0,83,0.00,,,0.00,WUHU216HW,2013-08-31 15:40:00,
2013-08-31 11:45:00,73.3,67.8,29.80,North,0,0.0,0.0,83,0.00,,,0.00,WUHU216HW,2013-08-31 15:45:00,
2013-08-31 11:50:00,73.6,67.9,29.80,North,0,0.0,0.0,82,0.00,,,0.00,WUHU216HW,2013-08-31 15:50:00,
2013-08-31 11:55:00,74.5,68.8,29.80,North,0,0.0,0.0,82,0.00,,,0.00,WUHU216HW,2013-08-31 15:55:00,
2013-08-31 12:00:00,77.2,69.9,29.79,North,0,0.0,0.0,78,0.00,,,0.00,WUHU216HW,2013-08-31 16:00:00,
2013-08-31 12:05:00,79.9,70.5,29.79,North,0,0.0,0.0,73,0.00,,,0.00,WUHU216HW,2013-08-31 16:05:00,
2013-08-31 12:10:00,81.0,70.7,29.79,North,0,0.0,0.0,71,0.00,,,0.00,WUHU216HW,2013-08-31 16:10:00,
2013-08-31 12:15:00,81.5,71.3,29.79,North,0,0.0,0.0,71,0.00,,,0.00,WUHU216HW,2013-08-31 16:15:00,
2013-08-31 12:20:00,81.4,70.2,29.79,North,0,0.0,0.0,69,0.00,,,0.00,WUHU216HW,2013-08-31 16:20:00,
2013-08-31 12:25:00,82.1,70.8,29.79,North,0,0.0,0.0,69,0.00,,,0.00,WUHU216HW,2013-08-31 16:25:00,
2013-08-31 12:30:00,82.1,70.8,29.79,North,0,0.0,0.0,69,0.00,,,0.00,WUHU216HW,2013-08-31 16:30:00,
2013-08-31 12:35:00,81.2,69.6,29.78,North,0,0.0,0.0,68,0.00,,,0.00,WUHU216HW,2013-08-31 16:35:00,
2013-08-31 12:40:00,77.8,67.2,29.78,North,0,0.0,0.0,70,0.00,,,0.00,WUHU216HW,2013-08-31 16:40:00,
2013-08-31 12:45:00,75.8,66.9,29.79,North,0,0.0,0.0,74,0.00,,,0.00,WUHU216HW,2013-08-31 16:45:00,
2013-08-31 12:50:00,74.3,66.3,29.79,North,0,0.0,0.0,76,0.00,,,0.00,WUHU216HW,2013-08-31 16:50:00,
2013-08-31 12:55:00,73.1,65.9,29.79,North,0,0.0,0.0,78,0.00,,,0.00,WUHU216HW,2013-08-31 16:55:00,
2013-08-31 13:00:00,72.2,65.7,29.78,North,0,0.0,0.0,80,0.00,,,0.00,WUHU216HW,2013-08-31 17:00:00,
2013-08-31 13:05:00,71.5,65.7,29.78,North,0,0.0,0.0,82,0.00,,,0.00,WUHU216HW,2013-08-31 17:05:00,
2013-08-31 13:10:00,71.3,65.5,29.79,North,0,0.0,0.0,82,0.00,,,0.00,WUHU216HW,2013-08-31 17:10:00,
2013-08-31 13:15:00,71.3,65.8,29.79,North,0,0.0,0.0,83,0.00,,,0.00,WUHU216HW,2013-08-31 17:15:00,
2013-08-31 13:20:00,71.6,66.5,29.79,North,0,0.0,0.0,84,0.00,,,0.00,WUHU216HW,2013-08-31 17:20:00,
2013-08-31 13:25:00,71.6,66.5,29.79,North,0,0.0,0.0,84,0.00,,,0.00,WUHU216HW,2013-08-31 17:25:00,
2013-08-31 13:30:00,71.6,66.5,29.78,North,0,0.0,0.0,84,0.00,,,0.00,WUHU216HW,2013-08-31 17:30:00,
2013-08-31 13:35:00,71.5,66.7,29.79,North,0,0.0,0.0,85,0.00,,,0.00,WUHU216HW,2013-08-31 17:35:00,
2013-08-31 13:40:00,71.5,66.7,29.79,North,0,0.0,0.0,85,0.00,,,0.00,WUHU216HW,2013-08-31 17:40:00,
2013-08-31 13:45:00,71.6,66.9,29.79,North,0,0.0,0.0,85,0.00,,,0.00,WUHU216HW,2013-08-31 17:45:00,
2013-08-31 13:50:00,71.5,66.7,29.79,North,0,0.0,0.0,85,0.00,,,0.00,WUHU216HW,2013-08-31 17:50:00,
2013-08-31 13:55:00,71.6,67.2,29.79,North,0,0.0,0.0,86,0.00,,,0.00,WUHU216HW,2013-08-31 17:55:00,
2013-08-31 14:00:00,71.6,67.2,29.78,North,0,0.0,0.0,86,0.00,,,0.00,WUHU216HW,2013-08-31 18:00:00,
2013-08-31 14:05:00,72.0,68.0,29.78,North,0,0.0,0.0,87,0.00,,,0.00,WUHU216HW,2013-08-31 18:05:00,
2013-08-31 14:10:00,72.5,68.5,29.78,North,0,0.0,0.0,87,0.00,,,0.00,WUHU216HW,2013-08-31 18:10:00,
2013-08-31 14:15:00,72.9,68.5,29.78,North,0,0.0,0.0,86,0.00,,,0.00,WUHU216HW,2013-08-31 18:15:00,
2013-08-31 14:20:00,73.1,69.0,29.78,North,0,0.0,0.0,87,0.00,,,0.00,WUHU216HW,2013-08-31 18:20:00,
2013-08-31 14:25:00,73.1,68.7,29.78,North,0,0.0,0.0,86,0.00,,,0.00,WUHU216HW,2013-08-31 18:25:00,
2013-08-31 14:30:00,72.9,68.5,29.78,North,0,0.0,0.0,86,0.00,,,0.00,WUHU216HW,2013-08-31 18:30:00,
2013-08-31 14:35:00,72.9,68.5,29.77,North,0,0.0,0.0,86,0.00,,,0.00,WUHU216HW,2013-08-31 18:35:00,
2013-08-31 14:40:00,73.1,69.0,29.78,North,0,0.0,0.0,87,0.00,,,0.00,WUHU216HW,2013-08-31 18:40:00,
2013-08-31 14:45:00,73.1,69.0,29.78,North,0,0.0,0.0,87,0.00,,,0.00,WUHU216HW,2013-08-31 18:45:00,
2013-08-31 14:50:00,72.9,68.5,29.78,North,0,0.0,0.0,86,0.00,,,0.00,WUHU216HW,2013-08-31 18:50:00,
2013-08-31 14:55:00,73.3,68.5,29.78,North,0,0.0,0.0,85,0.00,,,0.00,WUHU216HW,2013-08-31 18:55:00,
2013-08-31 15:00:00,73.4,68.0,29.78,North,0,0.0,0.0,83,0.00,,,0.00,WUHU216HW,2013-08-31 19:00:00,
2013-08-31 15:05:00,73.3,67.8,29.78,North,0,0.0,0.0,83,0.00,,,0.00,WUHU216HW,2013-08-31 19:05:00,
2013-08-31 15:10:00,73.1,67.6,29.78,North,0,0.0,0.0,83,0.00,,,0.00,WUHU216HW,2013-08-31 19:10:00,
2013-08-31 15:15:00,72.9,67.4,29.77,North,0,0.0,0.0,83,0.00,,,0.00,WUHU216HW,2013-08-31 19:15:00,
2013-08-31 15:20:00,72.7,67.2,29.78,North,0,0.0,0.0,83,0.00,,,0.00,WUHU216HW,2013-08-31 19:20:00,
2013-08-31 15:25:00,73.1,68.0,29.78,North,0,0.0,0.0,84,0.00,,,0.00,WUHU216HW,2013-08-31 19:25:00,
2013-08-31 15:30:00,73.1,68.0,29.78,North,0,0.0,0.0,84,0.00,,,0.00,WUHU216HW,2013-08-31 19:30:00,
2013-08-31 15:35:00,73.1,68.0,29.78,North,0,0.0,0.0,84,0.00,,,0.00,WUHU216HW,2013-08-31 19:35:00,
2013-08-31 15:40:00,73.3,68.1,29.78,North,0,0.0,0.0,84,0.00,,,0.00,WUHU216HW,2013-08-31 19:40:00,
2013-08-31 15:45:00,73.3,67.8,29.78,North,0,0.0,0.0,83,0.00,,,0.00,WUHU216HW,2013-08-31 19:45:00,
2013-08-31 15:50:00,73.4,68.3,29.78,North,0,0.0,0.0,84,0.00,,,0.00,WUHU216HW,2013-08-31 19:50:00,
2013-08-31 15:55:00,73.6,68.5,29.78,North,0,0.0,0.0,84,0.00,,,0.00,WUHU216HW,2013-08-31 19:55:00,
2013-08-31 16:00:00,74.0,68.9,29.78,North,0,0.0,0.0,84,0.00,,,0.00,WUHU216HW,2013-08-31 20:00:00,
2013-08-31 16:05:00,74.0,68.5,29.77,North,0,0.0,0.0,83,0.00,,,0.00,WUHU216HW,2013-08-31 20:05:00,
2013-08-31 16:10:00,73.8,68.3,29.77,North,0,0.0,0.0,83,0.00,,,0.00,WUHU216HW,2013-08-31 20:10:00,
2013-08-31 16:15:00,73.1,67.6,29.77,North,0,0.0,0.0,83,0.00,,,0.00,WUHU216HW,2013-08-31 20:15:00,
2013-08-31 16:20:00,72.7,67.2,29.77,North,0,0.0,0.0,83,0.00,,,0.00,WUHU216HW,2013-08-31 20:20:00,
2013-08-31 16:25:00,72.2,66.7,29.77,North,0,0.0,0.0,83,0.00,,,0.00,WUHU216HW,2013-08-31 20:25:00,
2013-08-31 16:30:00,71.8,66.7,29.77,North,0,0.0,0.0,84,0.00,,,0.00,WUHU216HW,2013-08-31 20:30:00,
2013-08-31 16:35:00,71.6,66.5,29.77,North,0,0.0,0.0,84,0.00,,,0.00,WUHU216HW,2013-08-31 20:35:00,
2013-08-31 16:40:00,71.5,66.3,29.77,North,0,0.0,0.0,84,0.00,,,0.00,WUHU216HW,2013-08-31 20:40:00,
2013-08-31 16:45:00,71.1,66.0,29.77,North,0,0.0,0.0,84,0.00,,,0.00,WUHU216HW,2013-08-31 20:45:00,
2013-08-31 16:50:00,70.9,65.8,29.77,North,0,0.0,0.0,84,0.00,,,0.00,WUHU216HW,2013-08-31 20:50:00,
2013-08-31 16:55:00,70.9,66.2,29.77,North,0,0.0,0.0,85,0.00,,,0.00,WUHU216HW,2013-08-31 20:55:00,
2013-08-31 17:00:00,70.9,66.2,29.77,North,0,0.0,0.0,85,0.00,,,0.00,WUHU216HW,2013-08-31 21:00:00,
2013-08-31 17:05:00,71.3,66.5,29.77,North,0,0.0,0.0,85,0.00,,,0.00,WUHU216HW,2013-08-31 21:05:00,
2013-08-31 17:10:00,71.3,66.5,29.76,North,0,0.0,0.0,85,0.00,,,0.00,WUHU216HW,2013-08-31 21:10:00,
2013-08-31 17:15:00,71.3,66.5,29.76,North,0,0.0,0.0,85,0.00,,,0.00,WUHU216HW,2013-08-31 21:15:00,
2013-08-31 17:20:00,71.5,66.7,29.76,North,0,0.0,0.0,85,0.00,,,0.00,WUHU216HW,2013-08-31 21:20:00,
2013-08-31 17:25:00,71.3,66.5,29.76,North,0,0.0,0.0,85,0.00,,,0.00,WUHU216HW,2013-08-31 21:25:00,
2013-08-31 17:29:00,71.3,66.5,29.76,North,0,0.0,0.0,85,0.00,,,0.00,WUHU216HW,2013-08-31 21:29:00,
2013-08-31 17:34:00,71.1,66.3,29.76,North,0,0.0,0.0,85,0.00,,,0.00,WUHU216HW,2013-08-31 21:34:00,
2013-08-31 17:39:00,70.9,66.2,29.76,North,0,0.0,0.0,85,0.00,,,0.00,WUHU216HW,2013-08-31 21:39:00,
2013-08-31 17:44:00,70.9,66.2,29.76,North,0,0.0,0.0,85,0.00,,,0.00,WUHU216HW,2013-08-31 21:44:00,
2013-08-31 17:49:00,70.7,66.0,29.76,North,0,0.0,0.0,85,0.00,,,0.00,WUHU216HW,2013-08-31 21:49:00,
2013-08-31 17:54:00,70.6,65.8,29.76,North,0,0.0,0.0,85,0.00,,,0.00,WUHU216HW,2013-08-31 21:54:00,
2013-08-31 17:59:00,70.2,65.8,29.76,North,0,0.0,0.0,86,0.00,,,0.00,WUHU216HW,2013-08-31 21:59:00,
2013-08-31 18:04:00,70.2,65.8,29.76,North,0,0.0,0.0,86,0.00,,,0.00,WUHU216HW,2013-08-31 22:04:00,
2013-08-31 18:09:00,70.0,65.6,29.75,North,0,0.0,0.0,86,0.00,,,0.00,WUHU216HW,2013-08-31 22:09:00,
2013-08-31 18:14:00,69.8,65.8,29.76,North,0,0.0,0.0,87,0.00,,,0.00,WUHU216HW,2013-08-31 22:14:00,
2013-08-31 18:19:00,69.7,65.6,29.76,North,0,0.0,0.0,87,0.00,,,0.00,WUHU216HW,2013-08-31 22:19:00,
2013-08-31 18:24:00,69.7,65.6,29.76,North,0,0.0,0.0,87,0.00,,,0.00,WUHU216HW,2013-08-31 22:24:00,
2013-08-31 18:29:00,69.8,65.8,29.76,North,0,0.0,0.0,87,0.00,,,0.00,WUHU216HW,2013-08-31 22:29:00,
2013-08-31 18:34:00,70.0,66.2,29.76,North,0,0.0,0.0,88,0.00,,,0.00,WUHU216HW,2013-08-31 22:34:00,
2013-08-31 18:39:00,70.0,66.2,29.76,North,0,0.0,0.0,88,0.00,,,0.00,WUHU216HW,2013-08-31 22:39:00,
2013-08-31 18:44:00,70.2,66.4,29.76,North,0,0.0,0.0,88,0.00,,,0.00,WUHU216HW,2013-08-31 22:44:00,
2013-08-31 18:49:00,70.4,66.6,29.76,North,0,0.0,0.0,88,0.00,,,0.00,WUHU216HW,2013-08-31 22:49:00,
2013-08-31 18:54:00,70.6,66.8,29.76,North,0,0.0,0.0,88,0.00,,,0.00,WUHU216HW,2013-08-31 22:54:00,
2013-08-31 18:59:00,70.7,67.0,29.76,North,0,0.0,0.0,88,0.00,,,0.00,WUHU216HW,2013-08-31 22:59:00,
2013-08-31 19:04:00,70.7,67.0,29.76,North,0,0.0,0.0,88,0.00,,,0.00,WUHU216HW,2013-08-31 23:04:00,
2013-08-31 19:09:00,70.6,66.8,29.76,North,0,0.0,0.0,88,0.00,,,0.00,WUHU216HW,2013-08-31 23:09:00,
2013-08-31 19:14:00,70.4,66.6,29.76,North,0,0.0,0.0,88,0.00,,,0.00,WUHU216HW,2013-08-31 23:14:00,
2013-08-31 19:19:00,70.2,66.4,29.75,North,0,0.0,0.0,88,0.00,,,0.00,WUHU216HW,2013-08-31 23:19:00,
2013-08-31 19:24:00,70.2,66.8,29.75,North,0,0.0,0.0,89,0.00,,,0.00,WUHU216HW,2013-08-31 23:24:00,
2013-08-31 19:29:00,70.0,66.6,29.76,North,0,0.0,0.0,89,0.00,,,0.00,WUHU216HW,2013-08-31 23:29:00,
2013-08-31 19:34:00,69.8,66.4,29.76,North,0,0.0,0.0,89,0.00,,,0.00,WUHU216HW,2013-08-31 23:34:00,
2013-08-31 19:39:00,69.7,66.2,29.77,North,0,0.0,0.0,89,0.00,,,0.00,WUHU216HW,2013-08-31 23:39:00,
2013-08-31 19:44:00,69.7,66.2,29.77,North,0,0.0,0.0,89,0.00,,,0.00,WUHU216HW,2013-08-31 23:44:00,
2013-08-31 19:49:00,69.5,66.1,29.77,North,0,0.0,0.0,89,0.00,,,0.00,WUHU216HW,2013-08-31 23:49:00,
2013-08-31 19:54:00,69.5,66.1,29.76,North,0,0.0,0.0,89,0.00,,,0.00,WUHU216HW,2013-08-31 23:54:00,
2013-08-31 19:59:00,69.5,66.1,29.76,North,0,0.0,0.0,89,0.00,,,0.00,WUHU216HW,2013-08-31 23:59:00,
2013-08-31 20:04:00,69.5,66.1,29.76,North,0,0.0,0.0,89,0.00,,,0.00,WUHU216HW,2013-09-01 00:04:00,
2013-08-31 20:09:00,69.3,65.9,29.76,North,0,0.0,0.0,89,0.00,,,0.00,WUHU216HW,2013-09-01 00:09:00,
2013-08-31 20:14:00,69.1,65.7,29.76,North,0,0.0,0.0,89,0.00,,,0.00,WUHU216HW,2013-09-01 00:14:00,
2013-08-31 20:19:00,68.8,65.3,29.76,North,0,0.0,0.0,89,0.00,,,0.00,WUHU216HW,2013-09-01 00:19:00,
2013-08-31 20:24:00,68.6,65.2,29.77,North,0,0.0,0.0,89,0.00,,,0.00,WUHU216HW,2013-09-01 00:24:00,
2013-08-31 20:29:00,68.4,65.0,29.77,North,0,0.0,0.0,89,0.00,,,0.00,WUHU216HW,2013-09-01 00:29:00,
2013-08-31 20:34:00,68.4,65.0,29.77,North,0,0.0,0.0,89,0.00,,,0.00,WUHU216HW,2013-09-01 00:34:00,
2013-08-31 20:39:00,68.4,65.3,29.78,North,0,0.0,0.0,90,0.00,,,0.00,WUHU216HW,2013-09-01 00:39:00,
2013-08-31 20:44:00,68.8,65.7,29.78,North,0,0.0,0.0,90,0.00,,,0.00,WUHU216HW,2013-09-01 00:44:00,
2013-08-31 20:49:00,68.8,65.7,29.77,North,0,0.0,0.0,90,0.00,,,0.00,WUHU216HW,2013-09-01 00:49:00,
2013-08-31 20:54:00,68.8,65.3,29.77,North,0,0.0,0.0,89,0.00,,,0.00,WUHU216HW,2013-09-01 00:54:00,
2013-08-31 20:59:00,68.4,65.0,29.77,North,0,0.0,0.0,89,0.00,,,0.00,WUHU216HW,2013-09-01 00:59:00,
2013-08-31 21:04:00,68.6,65.5,29.78,North,0,0.0,0.0,90,0.00,,,0.00,WUHU216HW,2013-09-01 01:04:00,
2013-08-31 21:09:00,68.6,65.5,29.78,North,0,0.0,0.0,90,0.00,,,0.00,WUHU216HW,2013-09-01 01:09:00,
2013-08-31 21:14:00,68.6,65.5,29.78,North,0,0.0,0.0,90,0.00,,,0.00,WUHU216HW,2013-09-01 01:14:00,
2013-08-31 21:19:00,68.8,65.7,29.77,North,0,0.0,0.0,90,0.00,,,0.00,WUHU216HW,2013-09-01 01:19:00,
2013-08-31 21:24:00,68.8,65.7,29.77,North,0,0.0,0.0,90,0.00,,,0.00,WUHU216HW,2013-09-01 01:24:00,
2013-08-31 21:29:00,68.9,65.9,29.77,North,0,0.0,0.0,90,0.00,,,0.00,WUHU216HW,2013-09-01 01:29:00,
2013-08-31 21:34:00,68.8,65.7,29.78,North,0,0.0,0.0,90,0.00,,,0.00,WUHU216HW,2013-09-01 01:34:00,
2013-08-31 21:39:00,68.8,65.7,29.78,North,0,0.0,0.0,90,0.00,,,0.00,WUHU216HW,2013-09-01 01:39:00,
2013-08-31 21:44:00,68.9,65.9,29.77,North,0,0.0,0.0,90,0.00,,,0.00,WUHU216HW,2013-09-01 01:44:00,
2013-08-31 21:49:00,69.1,66.1,29.78,North,0,0.0,0.0,90,0.00,,,0.00,WUHU216HW,2013-09-01 01:49:00,
2013-08-31 21:54:00,69.3,66.2,29.78,North,0,0.0,0.0,90,0.00,,,0.00,WUHU216HW,2013-09-01 01:54:00,
2013-08-31 21:59:00,69.5,66.4,29.78,North,0,0.0,0.0,90,0.00,,,0.00,WUHU216HW,2013-09-01 01:59:00,
2013-08-31 22:04:00,69.5,66.4,29.77,North,0,0.0,0.0,90,0.00,,,0.00,WUHU216HW,2013-09-01 02:04:00,
2013-08-31 22:09:00,69.7,66.6,29.77,North,0,0.0,0.0,90,0.00,,,0.00,WUHU216HW,2013-09-01 02:09:00,
2013-08-31 22:14:00,70.2,67.1,29.77,North,0,0.0,0.0,90,0.00,,,0.00,WUHU216HW,2013-09-01 02:14:00,
2013-08-31 22:19:00,70.6,67.5,29.77,North,0,0.0,0.0,90,0.00,,,0.00,WUHU216HW,2013-09-01 02:19:00,
2013-08-31 22:24:00,70.7,67.7,29.77,North,0,0.0,0.0,90,0.00,,,0.00,WUHU216HW,2013-09-01 02:24:00,
2013-08-31 22:29:00,70.9,67.9,29.77,North,0,0.0,0.0,90,0.00,,,0.00,WUHU216HW,2013-09-01 02:29:00,
2013-08-31 22:34:00,70.7,67.7,29.77,North,0,0.0,0.0,90,0.00,,,0.00,WUHU216HW,2013-09-01 02:34:00,
2013-08-31 22:39:00,70.6,67.5,29.76,North,0,0.0,0.0,90,0.00,,,0.00,WUHU216HW,2013-09-01 02:39:00,
2013-08-31 22:44:00,70.0,67.0,29.77,North,0,0.0,0.0,90,0.00,,,0.00,WUHU216HW,2013-09-01 02:44:00,
2013-08-31 22:49:00,69.7,66.2,29.76,North,0,0.0,0.0,89,0.00,,,0.00,WUHU216HW,2013-09-01 02:49:00,
2013-08-31 22:54:00,69.5,66.4,29.76,North,0,0.0,0.0,90,0.00,,,0.00,WUHU216HW,2013-09-01 02:54:00,
2013-08-31 22:59:00,69.5,66.4,29.76,North,0,0.0,0.0,90,0.00,,,0.00,WUHU216HW,2013-09-01 02:59:00,
2013-08-31 23:04:00,69.1,66.1,29.77,North,0,0.0,0.0,90,0.00,,,0.00,WUHU216HW,2013-09-01 03:04:00,
2013-08-31 23:09:00,68.9,65.9,29.77,North,0,0.0,0.0,90,0.00,,,0.00,WUHU216HW,2013-09-01 03:09:00,
2013-08-31 23:14:00,68.8,65.7,29.76,North,0,0.0,0.0,90,0.00,,,0.00,WUHU216HW,2013-09-01 03:14:00,
2013-08-31 23:19:00,68.4,65.3,29.76,North,0,0.0,0.0,90,0.00,,,0.00,WUHU216HW,2013-09-01 03:19:00,
2013-08-31 23:24:00,68.2,65.2,29.76,North,0,0.0,0.0,90,0.00,,,0.00,WUHU216HW,2013-09-01 03:24:00,
2013-08-31 23:29:00,68.0,65.0,29.76,North,0,0.0,0.0,90,0.00,,,0.00,WUHU216HW,2013-09-01 03:29:00,
2013-08-31 23:34:00,67.9,64.8,29.76,North,0,0.0,0.0,90,0.00,,,0.00,WUHU216HW,2013-09-01 03:34:00,
2013-08-31 23:39:00,67.7,64.6,29.76,North,0,0.0,0.0,90,0.00,,,0.00,WUHU216HW,2013-09-01 03:39:00,
2013-08-31 23:44:00,67.7,64.9,29.76,North,0,0.0,0.0,91,0.00,,,0.00,WUHU216HW,2013-09-01 03:44:00,
2013-08-31 23:49:00,67.7,64.9,29.77,North,0,0.0,0.0,91,0.00,,,0.00,WUHU216HW,2013-09-01 03:49:00,
2013-08-31 23:54:00,67.7,64.9,29.77,North,0,0.0,0.0,91,0.00,,,0.00,WUHU216HW,2013-09-01 03:54:00,
2013-08-31 23:59:00,67.9,65.1,29.77,North,0,0.0,0.0,91,0.00,,,0.00,WUHU216HW,2013-09-01 03:59:00,